createdAt,value
2023-11-20T00:01:26.172Z,22.90
2023-11-20T00:03:54.881Z,20.30
2023-11-20T00:06:23.023Z,21.10
2023-11-20T00:08:51.025Z,27.00
2023-11-20T00:11:19.046Z,21.90
2023-11-20T00:13:47.252Z,26.40
2023-11-20T00:16:15.358Z,20.70
2023-11-20T00:18:43.394Z,20.10
2023-11-20T00:21:11.556Z,24.70
2023-11-20T00:23:40.171Z,23.10
2023-11-20T00:26:15.658Z,21.90
2023-11-20T00:28:43.759Z,26.00
2023-11-20T00:31:18.901Z,20.10
2023-11-20T00:33:46.872Z,23.00
2023-11-20T00:36:14.885Z,25.10
2023-11-20T00:38:43.142Z,22.80
2023-11-20T00:41:11.197Z,21.70
2023-11-20T00:43:40.744Z,23.70
2023-11-20T00:46:09.108Z,20.00
2023-11-20T00:48:37.280Z,22.40
2023-11-20T00:51:05.612Z,23.30
2023-11-20T00:53:33.549Z,24.50
2023-11-20T00:56:01.528Z,23.70
2023-11-20T00:58:29.536Z,25.20
2023-11-20T01:00:59.480Z,22.40
2023-11-20T01:03:28.620Z,22.90
2023-11-20T01:05:56.922Z,25.20
2023-11-20T01:08:24.913Z,22.60
2023-11-20T01:10:52.920Z,19.40
2023-11-20T01:13:20.841Z,25.20
2023-11-20T01:15:48.909Z,24.80
2023-11-20T01:18:17.437Z,23.20
2023-11-20T01:20:46.157Z,23.10
2023-11-20T01:23:14.078Z,24.90
2023-11-20T01:25:42.211Z,23.30
2023-11-20T01:28:10.372Z,22.40
2023-11-20T01:30:38.365Z,23.50
2023-11-20T01:33:06.423Z,23.90
2023-11-20T01:35:34.419Z,23.50
2023-11-20T01:38:02.495Z,22.20
2023-11-20T01:40:30.478Z,21.50
2023-11-20T01:42:58.579Z,23.60
2023-11-20T01:45:26.544Z,24.40
2023-11-20T01:47:54.694Z,24.30
2023-11-20T01:50:22.794Z,23.10
2023-11-20T01:52:51.925Z,20.70
2023-11-20T01:55:21.513Z,23.80
2023-11-20T01:57:51.672Z,26.30
2023-11-20T02:00:20.891Z,24.50
2023-11-20T02:02:51.466Z,22.20
2023-11-20T02:05:20.893Z,27.20
2023-11-20T02:07:48.902Z,23.20
2023-11-20T02:10:19.028Z,29.20
2023-11-20T02:12:47.387Z,23.20
2023-11-20T02:15:15.732Z,22.40
2023-11-20T02:17:43.800Z,26.40
2023-11-20T02:20:12.114Z,21.80
2023-11-20T02:22:40.141Z,25.50
2023-11-20T02:25:09.035Z,24.90
2023-11-20T02:28:17.102Z,23.00
2023-11-20T02:30:45.394Z,21.70
2023-11-20T02:33:13.635Z,27.50
2023-11-20T02:35:41.728Z,26.30
2023-11-20T02:38:09.695Z,23.70
2023-11-20T02:40:38.022Z,24.30
2023-11-20T02:43:06.879Z,22.20
2023-11-20T02:45:36.533Z,23.20
2023-11-20T02:48:05.362Z,20.70
2023-11-20T02:50:35.479Z,25.00
2023-11-20T02:53:03.505Z,27.20
2023-11-20T02:55:31.875Z,19.60
2023-11-20T02:58:01.489Z,25.00
2023-11-20T03:00:29.512Z,25.50
2023-11-20T03:02:57.550Z,19.30
2023-11-20T03:05:25.715Z,23.80
2023-11-20T03:07:53.736Z,21.20
2023-11-20T03:10:22.273Z,24.40
2023-11-20T03:12:50.315Z,25.00
2023-11-20T03:15:18.346Z,25.80
2023-11-20T03:17:46.381Z,23.90
2023-11-20T03:20:14.564Z,20.00
2023-11-20T03:22:42.619Z,24.70
2023-11-20T03:25:10.957Z,24.50
2023-11-20T03:27:40.509Z,21.10
2023-11-20T03:30:10.509Z,23.00
2023-11-20T03:32:38.541Z,21.30
2023-11-20T03:35:06.897Z,25.30
2023-11-20T03:37:35.575Z,22.50
2023-11-20T03:40:05.280Z,24.40
2023-11-20T03:42:33.339Z,20.00
2023-11-20T03:45:02.285Z,23.00
2023-11-20T03:47:30.262Z,22.40
2023-11-20T03:49:58.245Z,22.70
2023-11-20T03:52:27.666Z,19.10
2023-11-20T03:54:55.780Z,21.80
2023-11-20T03:57:23.999Z,21.80
2023-11-20T03:59:52.001Z,20.30
2023-11-20T04:02:20.354Z,21.30
2023-11-20T04:04:48.405Z,18.30
2023-11-20T04:07:16.453Z,24.20
2023-11-20T04:09:44.440Z,21.50
2023-11-20T04:12:12.493Z,22.20
2023-11-20T04:14:40.518Z,26.20
2023-11-20T04:17:09.112Z,21.80
2023-11-20T04:19:37.567Z,22.30
2023-11-20T04:22:08.736Z,20.80
2023-11-20T04:24:37.046Z,21.30
2023-11-20T04:27:05.372Z,21.40
2023-11-20T04:29:33.238Z,22.80
2023-11-20T04:32:01.240Z,23.80
2023-11-20T04:34:29.257Z,23.70
2023-11-20T04:36:57.285Z,24.60
2023-11-20T04:39:25.235Z,20.40
2023-11-20T04:41:53.271Z,24.20
2023-11-20T04:44:21.269Z,20.90
2023-11-20T04:46:49.246Z,24.00
2023-11-20T04:49:17.217Z,23.00
2023-11-20T04:51:45.280Z,25.50
2023-11-20T04:54:13.352Z,18.00
2023-11-20T04:56:41.450Z,21.90
2023-11-20T04:59:10.469Z,19.90
2023-11-20T05:01:38.665Z,20.70
2023-11-20T05:04:07.085Z,21.60
2023-11-20T05:06:35.099Z,23.90
2023-11-20T05:09:03.422Z,20.90
2023-11-20T05:11:31.459Z,17.90
2023-11-20T05:14:00.834Z,21.80
2023-11-20T05:16:30.141Z,22.30
2023-11-20T05:18:58.306Z,23.10
2023-11-20T05:21:26.310Z,22.00
2023-11-20T05:23:54.284Z,17.60
2023-11-20T05:26:22.415Z,19.40
2023-11-20T05:28:52.403Z,22.60
2023-11-20T05:31:20.446Z,22.00
2023-11-20T05:33:48.962Z,22.40
2023-11-20T05:36:17.084Z,20.90
2023-11-20T05:38:45.080Z,21.30
2023-11-20T05:41:13.196Z,23.30
2023-11-20T05:43:41.905Z,24.20
2023-11-20T05:46:09.977Z,19.60
2023-11-20T05:48:38.529Z,22.10
2023-11-20T05:51:06.636Z,18.80
2023-11-20T05:53:34.733Z,19.30
2023-11-20T05:56:03.233Z,20.80
2023-11-20T05:58:31.369Z,21.40
2023-11-20T06:00:59.840Z,21.20
2023-11-20T06:03:27.996Z,22.50
2023-11-20T06:05:56.056Z,21.30
2023-11-20T06:08:24.586Z,20.30
2023-11-20T06:10:52.508Z,21.30
2023-11-20T06:13:20.632Z,22.20
2023-11-20T06:15:48.638Z,18.50
2023-11-20T06:18:16.661Z,24.00
2023-11-20T06:20:44.883Z,21.30
2023-11-20T06:23:13.668Z,20.70
2023-11-20T06:25:41.628Z,16.10
2023-11-20T06:28:09.593Z,21.30
2023-11-20T06:30:37.802Z,24.00
2023-11-20T06:33:06.258Z,21.40
2023-11-20T06:35:34.216Z,22.70
2023-11-20T06:38:02.156Z,19.60
2023-11-20T06:40:30.311Z,23.30
2023-11-20T06:42:58.748Z,25.30
2023-11-20T06:45:26.717Z,26.00
2023-11-20T06:47:54.704Z,25.80
2023-11-20T06:50:22.780Z,19.10
2023-11-20T06:52:53.380Z,22.10
2023-11-20T06:55:22.849Z,21.60
2023-11-20T06:57:51.127Z,20.10
2023-11-20T07:00:20.002Z,19.60
2023-11-20T07:02:48.649Z,21.50
2023-11-20T07:05:17.856Z,20.10
2023-11-20T07:07:55.117Z,20.30
2023-11-20T07:10:24.743Z,22.80
2023-11-20T07:12:58.052Z,24.40
2023-11-20T07:15:26.255Z,22.40
2023-11-20T07:17:54.360Z,20.90
2023-11-20T07:20:23.047Z,19.30
2023-11-20T07:22:51.262Z,20.40
2023-11-20T07:25:19.309Z,19.70
2023-11-20T07:27:47.315Z,19.60
2023-11-20T07:30:16.172Z,21.60
2023-11-20T07:32:45.235Z,21.40
2023-11-20T07:35:14.707Z,20.10
2023-11-20T07:37:43.588Z,24.80
2023-11-20T07:40:13.235Z,20.40
2023-11-20T07:42:42.223Z,20.80
2023-11-20T07:45:12.462Z,19.80
2023-11-20T07:47:41.801Z,21.10
2023-11-20T07:50:12.259Z,18.00
2023-11-20T07:52:40.571Z,20.50
2023-11-20T07:55:09.759Z,18.40
2023-11-20T07:57:38.131Z,14.40
2023-11-20T08:00:07.200Z,19.70
2023-11-20T08:02:35.441Z,19.50
2023-11-20T08:05:06.627Z,19.30
2023-11-20T08:07:35.000Z,17.70
2023-11-20T08:10:06.610Z,19.20
2023-11-20T08:12:35.986Z,16.60
2023-11-20T08:15:07.044Z,18.20
2023-11-20T08:17:36.028Z,17.30
2023-11-20T08:20:07.777Z,17.30
2023-11-20T08:22:37.221Z,17.20
2023-11-20T08:25:05.897Z,19.20
2023-11-20T08:27:33.957Z,18.50
2023-11-20T08:30:02.363Z,14.40
2023-11-20T08:32:30.389Z,17.60
2023-11-20T08:34:58.588Z,16.50
2023-11-20T08:37:26.618Z,18.40
2023-11-20T08:39:54.542Z,17.30
2023-11-20T08:42:23.677Z,18.40
2023-11-20T08:44:51.683Z,17.70
2023-11-20T08:47:19.803Z,18.50
2023-11-20T08:49:47.980Z,18.60
2023-11-20T08:52:16.416Z,17.50
2023-11-20T08:54:44.495Z,17.40
2023-11-20T08:57:12.474Z,18.60
2023-11-20T08:59:40.505Z,15.80
2023-11-20T09:02:08.549Z,18.20
2023-11-20T09:04:36.577Z,16.70
2023-11-20T09:07:04.957Z,16.80
2023-11-20T09:09:32.956Z,16.50
2023-11-20T09:12:02.203Z,14.70
2023-11-20T09:14:30.380Z,14.50
2023-11-20T09:16:59.000Z,15.70
2023-11-20T09:19:27.660Z,19.30
2023-11-20T09:21:55.677Z,22.90
2023-11-20T09:24:23.692Z,17.70
2023-11-20T09:26:51.642Z,20.70
2023-11-20T09:29:19.709Z,18.50
2023-11-20T09:31:49.353Z,16.90
2023-11-20T09:34:20.107Z,19.00
2023-11-20T09:36:48.202Z,18.20
2023-11-20T09:39:16.243Z,17.80
2023-11-20T09:41:44.535Z,22.60
2023-11-20T09:44:13.807Z,19.70
2023-11-20T09:46:45.884Z,15.20
2023-11-20T09:49:24.150Z,19.90
2023-11-20T09:51:58.057Z,18.80
2023-11-20T09:54:26.612Z,19.70
2023-11-20T09:56:55.101Z,18.10
2023-11-20T09:59:23.148Z,17.70
2023-11-20T10:01:53.230Z,17.90
2023-11-20T10:04:25.553Z,18.20
2023-11-20T10:06:56.194Z,17.70
2023-11-20T10:09:25.341Z,17.30
2023-11-20T10:11:57.976Z,16.60
2023-11-20T10:14:25.952Z,14.70
2023-11-20T10:16:55.083Z,18.80
2023-11-20T10:19:23.487Z,17.70
2023-11-20T10:21:52.641Z,19.00
2023-11-20T10:24:20.687Z,18.20
2023-11-20T10:26:48.813Z,17.10
2023-11-20T10:29:17.430Z,17.70
2023-11-20T10:31:48.144Z,19.80
2023-11-20T10:34:19.192Z,19.50
2023-11-20T10:37:06.006Z,16.50
2023-11-20T10:39:34.247Z,13.30
2023-11-20T10:42:03.071Z,13.70
2023-11-20T10:44:33.061Z,16.80
2023-11-20T10:47:01.286Z,14.90
2023-11-20T10:49:37.059Z,17.40
2023-11-20T10:52:16.931Z,17.40
2023-11-20T10:54:49.725Z,14.60
2023-11-20T10:57:19.815Z,17.00
2023-11-20T10:59:48.676Z,18.10
2023-11-20T11:02:21.591Z,16.00
2023-11-20T11:04:55.922Z,14.00
2023-11-20T11:07:26.281Z,17.90
2023-11-20T11:09:54.807Z,18.00
2023-11-20T11:12:33.142Z,17.20
2023-11-20T11:15:01.189Z,17.50
2023-11-20T11:17:34.901Z,16.60
2023-11-20T11:20:11.209Z,17.20
2023-11-20T11:22:45.286Z,17.70
2023-11-20T11:25:15.464Z,16.30
2023-11-20T11:27:58.070Z,19.30
2023-11-20T11:30:32.269Z,16.20
2023-11-20T11:33:34.034Z,16.30
2023-11-20T11:36:10.326Z,19.20
2023-11-20T11:38:42.457Z,18.40
2023-11-20T11:41:39.066Z,19.70
2023-11-20T11:44:23.433Z,17.90
2023-11-20T11:46:52.082Z,17.50
2023-11-20T11:49:24.624Z,14.50
2023-11-20T11:52:05.148Z,17.60
2023-11-20T11:54:33.706Z,13.60
2023-11-20T11:57:14.495Z,17.00
2023-11-20T11:59:47.067Z,15.90
2023-11-20T12:02:20.015Z,14.80
2023-11-20T12:04:51.321Z,18.30
2023-11-20T12:07:37.879Z,18.80
2023-11-20T12:10:13.502Z,18.20
2023-11-20T12:12:49.571Z,19.60
2023-11-20T12:15:37.501Z,16.70
2023-11-20T12:18:22.609Z,15.30
2023-11-20T12:20:56.765Z,19.30
2023-11-20T12:23:24.666Z,16.80
2023-11-20T12:25:57.624Z,16.60
2023-11-20T12:28:29.115Z,16.80
2023-11-20T12:30:57.086Z,16.50
2023-11-20T12:33:25.077Z,17.70
2023-11-20T12:35:56.936Z,18.90
2023-11-20T12:38:25.612Z,16.20
2023-11-20T12:40:55.735Z,16.10
2023-11-20T12:43:25.680Z,18.50
2023-11-20T12:45:53.969Z,19.30
2023-11-20T12:48:22.209Z,20.40
2023-11-20T12:50:51.124Z,19.40
2023-11-20T12:53:21.125Z,18.60
2023-11-20T12:55:54.523Z,18.50
2023-11-20T12:58:23.279Z,17.00
2023-11-20T13:00:54.490Z,18.00
2023-11-20T13:03:23.382Z,18.40
2023-11-20T13:05:54.932Z,21.80
2023-11-20T13:08:25.253Z,17.70
2023-11-20T13:11:02.979Z,21.70
2023-11-20T13:13:36.625Z,20.70
2023-11-20T13:16:17.490Z,18.00
2023-11-20T13:18:51.379Z,18.60
2023-11-20T13:21:27.662Z,18.00
2023-11-20T13:24:01.193Z,17.50
2023-11-20T13:26:29.889Z,14.40
2023-11-20T13:28:59.201Z,16.20
2023-11-20T13:31:36.152Z,14.10
2023-11-20T13:34:08.391Z,14.30
2023-11-20T13:36:39.396Z,16.80
2023-11-20T13:39:09.605Z,13.40
2023-11-20T13:41:38.459Z,17.60
2023-11-20T13:44:06.810Z,16.10
2023-11-20T13:46:38.403Z,15.40
2023-11-20T13:49:06.905Z,15.80
2023-11-20T13:51:35.027Z,16.30
2023-11-20T13:54:02.948Z,15.50
2023-11-20T13:56:31.559Z,16.10
2023-11-20T13:59:00.721Z,15.60
2023-11-20T14:01:29.335Z,15.80
2023-11-20T14:03:58.994Z,18.40
2023-11-20T14:06:27.189Z,17.20
2023-11-20T14:08:56.759Z,17.80
2023-11-20T14:11:24.796Z,19.10
2023-11-20T14:13:53.748Z,16.10
2023-11-20T14:16:24.541Z,17.30
2023-11-20T14:18:53.107Z,16.70
2023-11-20T14:21:21.922Z,17.60
2023-11-20T14:23:50.132Z,20.50
2023-11-20T14:26:29.732Z,21.20
2023-11-20T14:29:04.507Z,19.90
2023-11-20T14:31:32.915Z,22.20
2023-11-20T14:34:01.590Z,20.20
2023-11-20T14:36:30.057Z,18.50
2023-11-20T14:38:59.656Z,23.20
2023-11-20T14:41:28.336Z,22.00
2023-11-20T14:43:56.377Z,20.20
2023-11-20T14:46:24.401Z,22.00
2023-11-20T14:48:52.533Z,22.00
2023-11-20T14:51:24.153Z,21.80
2023-11-20T14:53:54.888Z,22.90
2023-11-20T14:56:23.316Z,23.10
2023-11-20T14:58:51.841Z,22.60
2023-11-20T15:01:21.370Z,21.10
2023-11-20T15:03:49.993Z,21.60
2023-11-20T15:06:19.239Z,21.10
2023-11-20T15:08:47.203Z,21.70
2023-11-20T15:11:16.324Z,19.10
2023-11-20T15:13:44.996Z,23.70
2023-11-20T15:16:13.321Z,23.30
2023-11-20T15:18:41.459Z,22.50
2023-11-20T15:21:09.500Z,22.50
2023-11-20T15:23:37.498Z,17.70
2023-11-20T15:26:05.766Z,19.40
2023-11-20T15:28:33.845Z,21.90
2023-11-20T15:31:02.353Z,23.20
2023-11-20T15:33:30.368Z,25.70
2023-11-20T15:35:58.376Z,17.80
2023-11-20T15:38:26.329Z,20.80
2023-11-20T15:40:54.654Z,21.50
2023-11-20T15:43:22.722Z,21.80
2023-11-20T15:45:54.365Z,17.30
2023-11-20T15:48:24.430Z,20.60
2023-11-20T15:50:55.618Z,22.30
2023-11-20T15:53:23.977Z,21.80
2023-11-20T15:55:52.095Z,23.80
2023-11-20T15:58:21.783Z,23.50
2023-11-20T16:00:51.044Z,20.60
2023-11-20T16:03:20.434Z,19.80
2023-11-20T16:05:49.367Z,21.40
2023-11-20T16:08:18.158Z,18.40
2023-11-20T16:10:48.672Z,19.10
2023-11-20T16:13:17.900Z,21.40
2023-11-20T16:15:47.152Z,20.60
2023-11-20T16:18:16.472Z,21.80
2023-11-20T16:20:48.649Z,23.50
2023-11-20T16:23:17.713Z,21.60
2023-11-20T16:25:48.574Z,24.00
2023-11-20T16:28:17.297Z,28.90
2023-11-20T16:30:49.960Z,28.00
2023-11-20T16:33:18.085Z,24.20
2023-11-20T16:35:46.027Z,20.10
2023-11-20T16:38:14.741Z,15.80
2023-11-20T16:40:49.461Z,19.00
2023-11-20T16:43:18.683Z,16.30
2023-11-20T16:45:50.273Z,18.50
2023-11-20T16:48:18.993Z,18.50
2023-11-20T16:50:55.302Z,20.20
2023-11-20T16:53:23.840Z,14.90
2023-11-20T16:56:03.616Z,18.40
2023-11-20T16:58:34.051Z,17.40
2023-11-20T17:01:04.057Z,15.70
2023-11-20T17:03:34.839Z,15.90
2023-11-20T17:06:05.976Z,13.50
2023-11-20T17:08:36.706Z,14.30
2023-11-20T17:11:05.748Z,16.00
2023-11-20T17:13:33.959Z,16.50
2023-11-20T17:16:02.528Z,16.90
2023-11-20T17:18:30.821Z,18.50
2023-11-20T17:20:59.185Z,15.90
2023-11-20T17:23:27.301Z,19.50
2023-11-20T17:25:55.284Z,15.80
2023-11-20T17:28:23.602Z,17.90
2023-11-20T17:30:51.704Z,16.30
2023-11-20T17:33:20.315Z,15.10
2023-11-20T17:35:48.495Z,17.00
2023-11-20T17:38:16.613Z,17.00
2023-11-20T17:40:44.947Z,17.30
2023-11-20T17:43:13.682Z,17.30
2023-11-20T17:45:43.410Z,15.60
2023-11-20T17:48:14.384Z,17.40
2023-11-20T17:50:42.478Z,18.00
2023-11-20T17:53:10.890Z,17.90
2023-11-20T17:55:40.040Z,15.10
2023-11-20T17:58:08.398Z,16.70
2023-11-20T18:00:36.825Z,17.10
2023-11-20T18:03:08.139Z,17.40
2023-11-20T18:05:41.834Z,18.80
2023-11-20T18:08:30.024Z,17.20
2023-11-20T18:10:58.148Z,11.60
2023-11-20T18:13:26.323Z,14.80
2023-11-20T18:16:10.936Z,13.40
2023-11-20T18:18:39.138Z,15.70
2023-11-20T18:21:08.417Z,17.70
2023-11-20T18:23:36.684Z,15.70
2023-11-20T18:26:05.836Z,16.20
2023-11-20T18:28:34.733Z,15.80
2023-11-20T18:31:04.737Z,17.50
2023-11-20T18:33:34.363Z,17.90
2023-11-20T18:36:04.566Z,17.70
2023-11-20T18:38:32.666Z,18.00
2023-11-20T18:41:01.444Z,20.10
2023-11-20T18:43:30.678Z,17.30
2023-11-20T18:45:59.437Z,17.10
2023-11-20T18:48:28.272Z,15.20
2023-11-20T18:50:57.003Z,16.80
2023-11-20T18:53:25.048Z,20.10
2023-11-20T18:55:53.362Z,16.00
2023-11-20T18:58:22.223Z,15.00
2023-11-20T19:00:50.383Z,18.60
2023-11-20T19:03:18.656Z,17.30
2023-11-20T19:05:46.812Z,16.10
2023-11-20T19:08:18.013Z,18.00
2023-11-20T19:10:48.530Z,17.40
2023-11-20T19:13:16.768Z,18.40
2023-11-20T19:15:44.964Z,16.50
2023-11-20T19:18:14.562Z,18.60
2023-11-20T19:20:43.022Z,18.30
2023-11-20T19:23:12.343Z,17.50
2023-11-20T19:25:41.009Z,19.40
2023-11-20T19:28:09.512Z,19.80
2023-11-20T19:30:39.915Z,15.50
2023-11-20T19:33:11.352Z,20.60
2023-11-20T19:35:41.326Z,19.90
2023-11-20T19:38:13.628Z,19.40
2023-11-20T19:40:42.032Z,19.00
2023-11-20T19:43:10.511Z,18.50
2023-11-20T19:45:39.240Z,17.30
2023-11-20T19:48:07.556Z,18.40
2023-11-20T19:50:36.431Z,17.20
2023-11-20T19:53:07.441Z,18.30
2023-11-20T19:55:35.512Z,15.50
2023-11-20T19:58:04.941Z,17.90
2023-11-20T20:00:33.944Z,18.30
2023-11-20T20:03:02.106Z,17.40
2023-11-20T20:05:30.431Z,17.00
2023-11-20T20:08:00.323Z,16.40
2023-11-20T20:10:29.325Z,20.10
2023-11-20T20:12:57.729Z,16.60
2023-11-20T20:15:26.139Z,18.60
2023-11-20T20:17:59.087Z,16.70
2023-11-20T20:20:30.874Z,15.40
2023-11-20T20:23:01.568Z,17.60
2023-11-20T20:25:31.142Z,14.70
2023-11-20T20:27:59.643Z,14.70
2023-11-20T20:30:29.511Z,14.50
2023-11-20T20:32:57.944Z,15.90
2023-11-20T20:35:28.747Z,15.10
2023-11-20T20:37:56.781Z,16.90
2023-11-20T20:40:28.829Z,15.20
2023-11-20T20:43:01.209Z,17.80
2023-11-20T20:45:30.161Z,15.00
2023-11-20T20:47:58.577Z,15.60
2023-11-20T20:50:27.296Z,14.40
2023-11-20T20:52:55.274Z,15.00
2023-11-20T20:55:23.397Z,14.40
2023-11-20T20:57:54.088Z,13.10
2023-11-20T21:00:22.513Z,15.50
2023-11-20T21:02:51.447Z,13.90
2023-11-20T21:05:19.786Z,17.70
2023-11-20T21:07:47.930Z,13.60
2023-11-20T21:10:17.941Z,15.20
2023-11-20T21:12:46.074Z,15.20
2023-11-20T21:15:15.769Z,16.00
2023-11-20T21:17:46.235Z,14.90
2023-11-20T21:20:15.934Z,14.20
2023-11-20T21:22:45.943Z,17.10
2023-11-20T21:25:14.486Z,14.60
2023-11-20T21:27:44.049Z,13.40
2023-11-20T21:30:13.223Z,15.80
2023-11-20T21:32:42.629Z,15.50
2023-11-20T21:35:11.691Z,14.60
2023-11-20T21:37:39.923Z,13.50
2023-11-20T21:40:11.045Z,14.40
2023-11-20T21:42:39.327Z,12.40
2023-11-20T21:45:08.250Z,12.60
2023-11-20T21:47:36.554Z,13.70
2023-11-20T21:50:06.063Z,13.40
2023-11-20T21:52:34.499Z,11.80
2023-11-20T21:55:03.384Z,12.60
2023-11-20T21:57:31.492Z,10.30
2023-11-20T21:59:59.433Z,14.10
2023-11-20T22:02:27.414Z,13.30
2023-11-20T22:04:55.526Z,14.20
2023-11-20T22:07:24.257Z,13.20
2023-11-20T22:09:52.847Z,13.10
2023-11-20T22:12:20.972Z,13.20
2023-11-20T22:14:48.992Z,14.90
2023-11-20T22:17:16.926Z,12.20
2023-11-20T22:19:45.000Z,14.00
2023-11-20T22:22:15.726Z,14.00
2023-11-20T22:24:43.949Z,14.00
2023-11-20T22:27:12.725Z,12.70
2023-11-20T22:29:41.926Z,13.40
2023-11-20T22:32:10.042Z,13.40
2023-11-20T22:34:38.034Z,12.80
2023-11-20T22:37:06.101Z,12.00
2023-11-20T22:39:34.381Z,14.20
2023-11-20T22:42:02.326Z,12.40
2023-11-20T22:44:30.299Z,13.00
2023-11-20T22:46:58.287Z,12.30
2023-11-20T22:49:26.417Z,12.30
2023-11-20T22:51:54.397Z,12.50
2023-11-20T22:54:24.276Z,13.50
2023-11-20T22:56:52.321Z,16.10
2023-11-20T22:59:20.524Z,14.30
2023-11-20T23:01:48.544Z,13.10
2023-11-20T23:04:17.140Z,13.80
2023-11-20T23:06:45.397Z,15.20
2023-11-20T23:09:16.933Z,14.90
2023-11-20T23:11:45.034Z,14.10
2023-11-20T23:14:13.012Z,15.40
2023-11-20T23:16:41.036Z,14.60
2023-11-20T23:19:09.075Z,13.90
2023-11-20T23:21:37.079Z,14.80
2023-11-20T23:24:06.250Z,17.80
2023-11-20T23:26:34.869Z,16.50
2023-11-20T23:29:05.637Z,14.60
2023-11-20T23:31:37.984Z,13.40
2023-11-20T23:34:06.327Z,14.40
2023-11-20T23:36:34.557Z,13.50
2023-11-20T23:39:02.671Z,16.40
2023-11-20T23:41:30.596Z,13.90
2023-11-20T23:43:58.537Z,14.80
2023-11-20T23:46:28.471Z,14.50
2023-11-20T23:48:58.188Z,13.20
2023-11-20T23:51:26.526Z,12.10
2023-11-20T23:53:54.489Z,12.40
2023-11-20T23:56:22.503Z,11.40
2023-11-20T23:58:51.122Z,15.20
